Time;durP1;ratioP1;P1;durP2;ratioP2;P2;SDS_P1;SDS_P2;PMS_P1;PMS_P2;Temp;Humidity;BMP_temperature;BMP_pressure;BME280_temperature;BME280_humidity;BME280_pressure;Samples;Min_cycle;Max_cycle;Signal;HPM_P1;HPM_P2
2021/12/17 00:05:07;;;;;;;28.40;18.10;;;4.30;97.90;;;;;;5075492;28;20528;-47
2021/12/17 00:07:36;;;;;;;30.87;20.17;;;4.30;98.10;;;;;;5067377;28;20481;-46
2021/12/17 00:10:08;;;;;;;28.40;18.43;;;4.30;98.50;;;;;;5064167;28;20967;-50
2021/12/17 00:12:35;;;;;;;37.23;19.47;;;4.30;98.40;;;;;;5069033;28;20479;-46
2021/12/17 00:15:03;;;;;;;33.53;18.07;;;4.40;98.60;;;;;;5068060;28;20475;-46
2021/12/17 00:17:34;;;;;;;28.43;17.40;;;4.50;98.70;;;;;;5069175;28;20910;-46
2021/12/17 00:50:41;;;;;;;29.97;17.50;;;5.30;99.50;;;;;;5069701;28;20569;-47
2021/12/17 00:53:08;;;;;;;30.27;18.00;;;5.30;99.40;;;;;;5083153;28;20810;-46
2021/12/17 00:55:35;;;;;;;32.63;19.37;;;5.40;99.50;;;;;;5075130;28;20518;-46
2021/12/17 00:58:02;;;;;;;37.70;21.27;;;5.40;99.90;;;;;;5079853;28;20478;-47
2021/12/17 01:00:28;;;;;;;31.73;19.90;;;5.50;99.90;;;;;;5082935;28;20474;-47
2021/12/17 01:02:57;;;;;;;33.77;18.87;;;5.60;99.90;;;;;;5083609;28;20482;-47
2021/12/17 01:05:28;;;;;;;28.97;17.90;;;5.70;99.90;;;;;;5074783;28;20474;-47
2021/12/17 01:07:56;;;;;;;38.33;20.83;;;5.80;99.90;;;;;;5075612;28;20474;-47
2021/12/17 01:10:27;;;;;;;35.67;21.10;;;5.90;99.90;;;;;;5072334;28;20882;-48
2021/12/17 01:12:54;;;;;;;48.53;22.80;;;6.00;99.90;;;;;;5084533;28;20948;-48
2021/12/17 01:15:21;;;;;;;46.93;23.13;;;6.20;99.90;;;;;;5086601;28;20950;-47
2021/12/17 01:17:52;;;;;;;48.00;23.97;;;6.30;99.90;;;;;;5077621;28;20551;-47
2021/12/17 01:20:45;;;;;;;49.67;24.83;;;6.40;99.90;;;;;;5084361;28;20965;-47
2021/12/17 01:23:42;;;;;;;51.37;23.47;;;6.60;99.90;;;;;;5082133;28;20479;-47
2021/12/17 01:37:40;;;;;;;38.70;19.63;;;7.00;99.90;;;;;;5076242;28;20552;-47
2021/12/17 01:42:34;;;;;;;35.73;17.80;;;7.20;99.90;;;;;;5068277;28;20476;-47
2021/12/17 01:45:01;;;;;;;33.23;17.67;;;7.30;99.90;;;;;;5080673;28;20533;-56
2021/12/17 01:47:28;;;;;;;33.13;17.67;;;7.40;99.90;;;;;;5078867;28;20533;-46
2021/12/17 02:00:55;;;;;;;33.50;17.23;;;7.90;99.90;;;;;;5080309;28;20481;-47
2021/12/17 02:03:22;;;;;;;26.90;14.43;;;8.00;99.90;;;;;;5081379;28;21359;-47
2021/12/17 02:05:49;;;;;;;36.70;18.07;;;8.00;99.90;;;;;;5081115;28;20809;-47
2021/12/17 02:08:17;;;;;;;28.80;16.43;;;8.10;99.90;;;;;;5080680;28;20550;-46
2021/12/17 02:19:42;;;;;;;23.40;13.83;;;8.30;99.90;;;;;;5081671;28;20531;-46
2021/12/17 02:23:03;;;;;;;22.10;12.40;;;8.30;99.90;;;;;;5051204;28;20475;-46
2021/12/17 02:31:07;;;;;;;17.87;11.70;;;8.40;99.90;;;;;;5061981;28;20487;-47
2021/12/17 02:33:34;;;;;;;12.90;9.07;;;8.40;99.90;;;;;;5081449;28;20574;-47
2021/12/17 02:36:01;;;;;;;14.90;10.90;;;8.50;99.90;;;;;;5078042;28;20482;-47
2021/12/17 02:38:36;;;;;;;15.40;10.00;;;8.50;99.90;;;;;;5083789;28;20477;-47
2021/12/17 02:46:35;;;;;;;15.53;9.57;;;8.60;99.90;;;;;;5078898;28;20761;-46
2021/12/17 02:49:02;;;;;;;12.60;9.87;;;8.70;99.90;;;;;;5081843;28;20485;-46
2021/12/17 02:51:29;;;;;;;12.70;10.03;;;8.70;99.90;;;;;;5081678;28;20857;-46
2021/12/17 02:54:00;;;;;;;12.10;8.53;;;8.70;99.90;;;;;;5080180;28;20477;-47
2021/12/17 02:56:27;;;;;;;12.30;9.20;;;8.80;99.90;;;;;;5075811;28;20767;-47
2021/12/17 02:58:55;;;;;;;14.53;9.03;;;8.70;99.90;;;;;;5085003;28;20549;-46
2021/12/17 03:01:22;;;;;;;12.70;9.23;;;8.80;99.90;;;;;;5069850;28;20696;-46
2021/12/17 03:03:51;;;;;;;12.53;9.20;;;8.80;99.90;;;;;;5090624;28;20815;-46
2021/12/17 03:06:20;;;;;;;12.40;9.57;;;8.80;99.90;;;;;;5076087;28;20475;-46
2021/12/17 03:08:47;;;;;;;13.00;8.70;;;8.80;99.90;;;;;;5074444;28;20497;-47
2021/12/17 03:11:16;;;;;;;11.03;7.53;;;8.80;99.90;;;;;;5090772;28;20481;-46
2021/12/17 03:13:45;;;;;;;13.40;8.33;;;8.80;99.90;;;;;;5082706;28;20563;-47
2021/12/17 03:16:23;;;;;;;10.90;8.20;;;8.80;99.90;;;;;;5057290;28;20484;-46
2021/12/17 03:19:01;;;;;;;12.30;8.67;;;8.80;99.90;;;;;;5052661;28;20491;-46
2021/12/17 03:24:10;;;;;;;12.20;8.63;;;8.80;99.90;;;;;;5046531;28;20473;-47
2021/12/17 03:26:38;;;;;;;10.23;8.73;;;8.80;99.90;;;;;;5083379;28;20488;-47
2021/12/17 03:29:07;;;;;;;13.77;9.30;;;8.90;99.90;;;;;;5079543;28;20469;-55
2021/12/17 03:31:34;;;;;;;12.30;8.80;;;8.90;99.90;;;;;;5079637;28;20521;-46
2021/12/17 03:34:14;;;;;;;10.40;8.50;;;8.90;99.90;;;;;;5072008;28;20565;-47
2021/12/17 03:36:40;;;;;;;12.73;9.77;;;8.90;99.90;;;;;;5086497;28;20476;-47
2021/12/17 03:39:07;;;;;;;11.87;8.27;;;8.90;99.90;;;;;;5080957;28;20485;-47
2021/12/17 03:41:37;;;;;;;10.70;7.07;;;8.90;99.90;;;;;;5074757;28;20491;-46
2021/12/17 03:44:06;;;;;;;8.90;6.73;;;8.90;99.90;;;;;;5075424;28;20471;-46
2021/12/17 03:46:33;;;;;;;10.07;7.33;;;8.90;99.90;;;;;;5062285;28;20555;-46
2021/12/17 03:49:02;;;;;;;10.83;7.10;;;8.90;99.90;;;;;;5077195;28;20984;-46
2021/12/17 03:51:29;;;;;;;7.00;6.20;;;8.90;99.90;;;;;;5075493;28;20492;-47
2021/12/17 03:53:59;;;;;;;8.50;7.30;;;8.90;99.90;;;;;;5078593;28;20612;-47
2021/12/17 03:56:27;;;;;;;8.63;5.90;;;9.00;99.90;;;;;;5075035;28;20488;-46
2021/12/17 03:58:56;;;;;;;9.07;5.80;;;9.00;99.90;;;;;;5079157;28;20529;-47
2021/12/17 04:01:25;;;;;;;5.43;5.03;;;8.90;99.90;;;;;;5072951;28;20472;-47
2021/12/17 04:03:52;;;;;;;4.83;4.10;;;8.90;99.90;;;;;;5057186;28;20491;-49
2021/12/17 04:06:19;;;;;;;3.93;3.57;;;8.90;99.90;;;;;;5057392;28;20470;-45
2021/12/17 04:08:46;;;;;;;3.60;3.30;;;8.90;99.90;;;;;;5079797;28;20477;-46
2021/12/17 04:11:18;;;;;;;4.83;4.43;;;8.90;99.90;;;;;;5079864;28;20546;-46
2021/12/17 04:13:52;;;;;;;4.90;4.47;;;8.80;99.90;;;;;;5043279;28;20956;-46
2021/12/17 04:16:23;;;;;;;6.40;4.93;;;8.90;99.90;;;;;;5045480;28;20821;-46
2021/12/17 04:18:51;;;;;;;6.93;4.83;;;8.90;99.90;;;;;;5049223;28;20499;-46
2021/12/17 04:21:18;;;;;;;6.03;5.13;;;8.90;99.90;;;;;;5051505;28;20471;-46
2021/12/17 04:23:47;;;;;;;5.63;5.10;;;8.90;99.90;;;;;;5074534;28;20565;-46
2021/12/17 04:26:16;;;;;;;6.73;6.03;;;8.90;99.90;;;;;;5076413;28;25261;-46
2021/12/17 04:28:45;;;;;;;5.10;4.60;;;8.90;99.90;;;;;;5081106;28;20599;-46
2021/12/17 04:31:12;;;;;;;5.90;4.10;;;8.90;99.90;;;;;;5077018;28;20495;-46
2021/12/17 04:33:41;;;;;;;6.73;5.03;;;8.90;99.90;;;;;;5071989;28;20484;-46
2021/12/17 04:36:12;;;;;;;6.87;6.10;;;8.90;99.90;;;;;;5078005;28;20474;-47
2021/12/17 04:38:39;;;;;;;6.73;6.03;;;8.90;99.90;;;;;;5079922;28;20494;-47
2021/12/17 04:41:37;;;;;;;6.10;5.37;;;8.90;99.90;;;;;;5073904;28;20710;-46
2021/12/17 04:44:09;;;;;;;6.47;5.87;;;8.90;99.90;;;;;;5066900;28;20485;-47
2021/12/17 04:46:38;;;;;;;6.10;5.50;;;9.00;99.90;;;;;;5074469;28;20502;-46
2021/12/17 04:57:30;;;;;;;7.67;6.40;;;9.00;99.90;;;;;;5077527;28;20513;-47
2021/12/17 05:00:01;;;;;;;6.63;5.37;;;9.00;99.90;;;;;;5080063;28;25270;-46
2021/12/17 05:02:30;;;;;;;6.00;5.40;;;9.00;99.90;;;;;;5078473;28;20521;-47
2021/12/17 05:04:56;;;;;;;5.90;5.40;;;8.90;99.90;;;;;;5071693;28;20472;-47
2021/12/17 05:07:25;;;;;;;9.53;6.90;;;8.90;99.90;;;;;;5078368;28;20491;-46
2021/12/17 05:10:00;;;;;;;8.83;7.17;;;8.90;99.90;;;;;;5063567;28;20502;-51
2021/12/17 05:20:46;;;;;;;9.00;5.87;;;8.90;99.90;;;;;;5047691;28;20487;-46
2021/12/17 05:23:14;;;;;;;5.50;4.93;;;8.90;99.90;;;;;;5054145;28;20470;-46
2021/12/17 05:25:41;;;;;;;5.03;4.40;;;8.90;99.90;;;;;;5074186;28;20476;-46
2021/12/17 05:28:07;;;;;;;6.67;5.33;;;8.90;99.90;;;;;;5082654;28;20493;-46
2021/12/17 05:30:36;;;;;;;6.53;5.90;;;8.90;99.90;;;;;;5082512;28;20480;-46
2021/12/17 05:33:03;;;;;;;7.93;7.10;;;8.80;99.90;;;;;;5084186;28;20562;-46
2021/12/17 05:35:29;;;;;;;7.83;7.13;;;8.80;99.90;;;;;;5081000;28;20480;-47
2021/12/17 05:37:56;;;;;;;7.37;6.63;;;8.90;99.90;;;;;;5083457;28;20554;-47
2021/12/17 05:40:24;;;;;;;8.40;6.47;;;8.90;99.90;;;;;;5085360;28;20572;-46
2021/12/17 05:42:55;;;;;;;7.23;6.20;;;8.90;99.90;;;;;;5081712;28;20483;-46
2021/12/17 05:45:32;;;;;;;8.90;5.43;;;8.90;99.90;;;;;;5079994;28;20574;-46
2021/12/17 05:48:00;;;;;;;6.23;5.50;;;8.90;99.70;;;;;;5066782;28;20491;-48
2021/12/17 05:50:27;;;;;;;6.23;5.50;;;8.90;99.60;;;;;;5076482;28;20509;-46
2021/12/17 05:52:53;;;;;;;6.67;6.00;;;8.90;99.70;;;;;;5086698;28;20488;-46
2021/12/17 05:55:20;;;;;;;6.83;5.50;;;8.90;99.60;;;;;;5083136;28;21414;-46
2021/12/17 05:57:48;;;;;;;6.73;6.13;;;8.90;99.70;;;;;;5091176;28;20485;-46
2021/12/17 06:00:16;;;;;;;6.93;5.87;;;8.90;99.60;;;;;;5078047;28;20534;-47
2021/12/17 06:02:43;;;;;;;6.77;5.23;;;8.90;99.60;;;;;;5077307;28;20660;-47
2021/12/17 06:05:10;;;;;;;8.20;6.20;;;8.90;99.30;;;;;;5078682;28;20483;-47
2021/12/17 06:07:36;;;;;;;6.47;4.83;;;8.90;99.40;;;;;;5075267;28;20486;-47
2021/12/17 06:10:04;;;;;;;6.30;4.90;;;8.90;99.20;;;;;;5073610;28;20533;-47
2021/12/17 06:12:31;;;;;;;7.13;6.50;;;8.90;99.30;;;;;;5080822;28;20489;-46
2021/12/17 06:14:59;;;;;;;14.40;7.43;;;8.90;99.30;;;;;;5055232;28;21272;-47
2021/12/17 06:17:26;;;;;;;7.97;7.23;;;9.00;99.40;;;;;;5074845;28;20542;-47
2021/12/17 06:19:53;;;;;;;8.87;7.63;;;9.00;99.40;;;;;;5068850;28;20487;-47
2021/12/17 06:22:19;;;;;;;10.40;8.57;;;9.00;99.30;;;;;;5067884;28;20854;-46
2021/12/17 06:24:46;;;;;;;10.37;8.53;;;9.10;99.30;;;;;;5067606;28;21008;-47
2021/12/17 06:27:13;;;;;;;9.27;7.60;;;9.10;99.30;;;;;;5071935;28;20480;-47
2021/12/17 06:29:40;;;;;;;8.13;7.23;;;9.00;99.10;;;;;;5069567;28;20484;-47
2021/12/17 06:32:09;;;;;;;10.07;7.77;;;9.00;99.00;;;;;;5078869;28;20544;-47
2021/12/17 06:34:36;;;;;;;8.07;7.27;;;8.90;99.10;;;;;;5076800;28;20487;-47
2021/12/17 06:37:04;;;;;;;8.53;6.90;;;8.90;99.00;;;;;;5083484;28;21980;-47
2021/12/17 06:39:31;;;;;;;8.33;7.53;;;8.90;98.90;;;;;;5085459;28;20482;-47
2021/12/17 06:41:57;;;;;;;10.20;6.20;;;8.90;99.00;;;;;;5077440;28;21032;-46
2021/12/17 06:44:26;;;;;;;8.43;7.00;;;8.80;98.90;;;;;;5077406;28;20470;-46
2021/12/17 06:46:59;;;;;;;7.53;6.83;;;8.70;98.80;;;;;;5080160;28;20485;-47
2021/12/17 06:49:42;;;;;;;8.50;6.90;;;8.70;98.80;;;;;;5066123;28;20543;-47
2021/12/17 06:55:05;;;;;;;7.80;7.00;;;8.60;98.70;;;;;;5073313;28;21108;-46
2021/12/17 07:00:39;;;;;;;7.70;6.30;;;8.50;98.80;;;;;;5060729;28;20495;-47
2021/12/17 07:05:58;;;;;;;9.73;7.97;;;8.40;99.10;;;;;;5041894;28;20473;-46
2021/12/17 07:11:34;;;;;;;9.90;7.07;;;8.40;99.10;;;;;;5078697;28;20501;-46
2021/12/17 07:17:14;;;;;;;8.77;7.70;;;8.40;99.30;;;;;;5079035;28;20504;-47
2021/12/17 07:22:43;;;;;;;8.90;7.20;;;8.30;99.00;;;;;;5054253;28;20579;-47
2021/12/17 07:28:14;;;;;;;9.50;7.53;;;8.30;99.10;;;;;;5072497;28;20514;-47
2021/12/17 07:33:35;;;;;;;9.50;7.80;;;8.30;99.10;;;;;;5061013;28;20616;-47
2021/12/17 07:36:09;;;;;;;12.53;8.47;;;8.30;99.10;;;;;;5082617;28;20492;-48
2021/12/17 07:38:39;;;;;;;11.23;9.90;;;8.20;99.10;;;;;;5073096;28;20538;-47
2021/12/17 07:41:08;;;;;;;8.83;8.00;;;8.30;99.20;;;;;;5076713;28;20475;-48
2021/12/17 07:43:38;;;;;;;8.90;7.70;;;8.20;99.10;;;;;;5072875;28;20474;-47
2021/12/17 07:46:08;;;;;;;9.70;8.20;;;8.30;99.10;;;;;;5063020;28;20519;-47
2021/12/17 07:48:35;;;;;;;9.23;7.50;;;8.30;99.00;;;;;;5076476;28;20482;-48
2021/12/17 07:51:04;;;;;;;7.67;6.20;;;8.30;99.00;;;;;;5073137;28;20491;-47
2021/12/17 07:53:32;;;;;;;7.90;5.80;;;8.30;98.90;;;;;;5080216;28;20983;-47
2021/12/17 07:56:01;;;;;;;5.73;5.20;;;8.20;98.90;;;;;;5076939;28;20545;-47
2021/12/17 07:58:28;;;;;;;7.10;6.50;;;8.20;98.80;;;;;;5073450;28;20485;-47
2021/12/17 08:00:55;;;;;;;12.23;7.83;;;8.20;99.00;;;;;;5069768;28;20880;-46
2021/12/17 08:03:22;;;;;;;8.57;7.47;;;8.20;98.90;;;;;;5065805;28;20489;-46
2021/12/17 08:05:50;;;;;;;9.60;7.23;;;8.20;98.80;;;;;;5072623;28;20494;-47
2021/12/17 08:08:17;;;;;;;9.27;8.37;;;8.20;98.90;;;;;;5073333;28;20535;-47
2021/12/17 08:10:44;;;;;;;9.50;8.60;;;8.20;98.90;;;;;;5065762;28;20486;-47
2021/12/17 08:13:19;;;;;;;9.80;8.40;;;8.20;98.90;;;;;;5081194;28;20488;-47
2021/12/17 08:15:57;;;;;;;9.10;8.20;;;8.30;98.90;;;;;;5051878;28;20475;-47
2021/12/17 08:18:45;;;;;;;9.73;8.90;;;8.30;98.90;;;;;;5074053;28;21058;-47
2021/12/17 08:24:43;;;;;;;10.47;9.23;;;8.50;99.10;;;;;;5079015;28;20483;-47
2021/12/17 08:27:22;;;;;;;10.77;8.53;;;9.20;99.90;;;;;;5075886;28;20992;-47
2021/12/17 08:30:06;;;;;;;8.53;7.73;;;10.20;99.10;;;;;;5078897;28;20561;-47
2021/12/17 08:32:33;;;;;;;6.67;6.07;;;11.40;98.30;;;;;;5078024;28;20488;-47
2021/12/17 08:35:00;;;;;;;7.37;6.63;;;12.60;96.70;;;;;;5082806;28;20482;-49
2021/12/17 08:37:28;;;;;;;8.23;7.43;;;13.60;95.40;;;;;;5083252;28;20489;-47
2021/12/17 08:39:55;;;;;;;7.63;6.73;;;14.30;94.30;;;;;;5074816;28;20480;-47
2021/12/17 08:42:22;;;;;;;6.80;6.20;;;15.00;93.30;;;;;;5067977;28;20476;-47
2021/12/17 08:44:50;;;;;;;8.63;7.83;;;15.30;92.30;;;;;;5088170;28;20507;-47
2021/12/17 08:47:17;;;;;;;8.23;7.53;;;15.40;91.70;;;;;;5075400;28;20542;-47
2021/12/17 08:49:44;;;;;;;7.23;6.63;;;15.50;92.00;;;;;;5077310;28;20478;-48
2021/12/17 08:52:13;;;;;;;7.23;6.50;;;15.80;92.10;;;;;;5074522;28;20489;-47
2021/12/17 08:54:40;;;;;;;7.63;6.83;;;16.10;91.50;;;;;;5080065;28;20536;-48
2021/12/17 08:57:07;;;;;;;7.80;6.53;;;16.20;90.80;;;;;;5077450;28;20486;-48
2021/12/17 08:59:34;;;;;;;7.80;7.00;;;16.10;90.60;;;;;;5079694;28;21009;-47
2021/12/17 09:02:02;;;;;;;10.20;8.13;;;16.00;90.40;;;;;;5080637;28;20835;-48
2021/12/17 09:04:29;;;;;;;7.20;6.50;;;15.90;90.60;;;;;;5080664;28;20542;-48
2021/12/17 09:06:56;;;;;;;8.00;7.20;;;15.80;90.90;;;;;;5084252;28;20483;-47
2021/12/17 09:09:23;;;;;;;9.27;7.33;;;15.80;90.60;;;;;;5082270;28;20440;-47
2021/12/17 09:11:50;;;;;;;8.10;7.40;;;15.60;90.50;;;;;;5089430;28;20462;-48
2021/12/17 09:14:19;;;;;;;8.13;7.43;;;15.40;90.80;;;;;;5076206;28;20472;-47
2021/12/17 09:16:46;;;;;;;7.20;6.50;;;15.20;90.90;;;;;;5079905;28;20545;-53
2021/12/17 09:19:15;;;;;;;7.77;6.93;;;15.10;91.10;;;;;;5078225;28;20472;-47
2021/12/17 09:21:42;;;;;;;7.00;6.40;;;14.80;91.10;;;;;;5082164;28;20505;-47
2021/12/17 09:24:09;;;;;;;6.80;6.17;;;14.60;91.30;;;;;;5091924;27;20985;-47
2021/12/17 09:26:36;;;;;;;8.63;6.97;;;14.50;91.60;;;;;;5079937;28;20992;-47
2021/12/17 09:29:04;;;;;;;9.50;6.87;;;14.40;91.70;;;;;;5084667;28;21052;-47
2021/12/17 09:31:30;;;;;;;7.33;6.13;;;14.30;91.70;;;;;;5051976;28;20495;-47
2021/12/17 09:33:57;;;;;;;7.17;6.57;;;14.20;91.80;;;;;;5082539;28;20476;-47
2021/12/17 09:36:25;;;;;;;6.40;5.90;;;14.20;92.00;;;;;;5081682;28;20517;-47
2021/12/17 09:38:53;;;;;;;6.73;6.00;;;14.00;91.30;;;;;;5085878;28;20487;-47
2021/12/17 09:41:20;;;;;;;6.80;6.10;;;13.80;92.00;;;;;;5082182;28;21019;-47
2021/12/17 09:43:47;;;;;;;5.87;5.27;;;13.60;92.00;;;;;;5083818;28;20490;-48
2021/12/17 09:46:14;;;;;;;7.60;5.47;;;13.40;91.80;;;;;;5081047;28;20500;-47
2021/12/17 09:48:41;;;;;;;6.20;5.60;;;13.20;91.90;;;;;;5077773;28;20498;-47
2021/12/17 09:51:09;;;;;;;6.90;5.83;;;13.10;92.20;;;;;;5074223;28;20493;-47
2021/12/17 09:53:37;;;;;;;6.27;5.67;;;13.00;92.40;;;;;;5080578;28;20796;-47
2021/12/17 09:56:05;;;;;;;7.67;6.00;;;13.00;92.70;;;;;;5080705;28;20528;-48
2021/12/17 09:58:33;;;;;;;6.87;6.17;;;12.90;92.60;;;;;;5080096;28;20483;-47
2021/12/17 10:01:00;;;;;;;6.90;5.80;;;12.80;92.70;;;;;;5077102;28;20873;-47
2021/12/17 10:03:28;;;;;;;5.90;5.40;;;12.80;92.70;;;;;;5088617;28;20490;-47
2021/12/17 10:05:55;;;;;;;5.67;5.17;;;12.70;92.60;;;;;;5077868;28;20486;-47
2021/12/17 10:08:24;;;;;;;8.03;5.50;;;12.60;93.00;;;;;;5074363;28;21208;-48
2021/12/17 10:10:56;;;;;;;8.00;5.67;;;12.60;93.10;;;;;;5086689;28;20544;-47
2021/12/17 10:13:26;;;;;;;6.13;5.47;;;12.60;93.20;;;;;;5081657;28;20560;-47
2021/12/17 10:15:55;;;;;;;6.40;5.70;;;12.60;93.50;;;;;;5079592;28;20521;-47
2021/12/17 10:18:33;;;;;;;5.17;4.67;;;12.70;93.00;;;;;;5082414;28;21009;-47
2021/12/17 10:21:01;;;;;;;6.47;5.83;;;12.60;92.80;;;;;;5076712;28;21034;-47
2021/12/17 10:23:30;;;;;;;7.07;6.00;;;12.50;93.20;;;;;;5073114;28;20480;-47
2021/12/17 10:25:59;;;;;;;5.40;4.90;;;12.30;92.50;;;;;;5079366;28;20537;-47
2021/12/17 10:28:26;;;;;;;5.87;4.43;;;12.00;92.70;;;;;;5069061;28;20471;-47
2021/12/17 10:30:55;;;;;;;5.87;5.27;;;11.90;93.20;;;;;;5073641;28;20474;-47
2021/12/17 10:33:24;;;;;;;6.03;5.40;;;11.90;93.50;;;;;;5046595;28;20503;-47
2021/12/17 10:35:53;;;;;;;9.00;6.47;;;12.00;93.60;;;;;;5072538;28;20566;-47
2021/12/17 10:38:23;;;;;;;9.50;7.43;;;12.00;93.90;;;;;;5070990;28;21018;-47
2021/12/17 10:40:57;;;;;;;7.20;6.50;;;12.00;93.70;;;;;;5074847;28;20481;-47
2021/12/17 10:43:31;;;;;;;9.90;7.40;;;12.10;94.00;;;;;;5055173;28;20492;-46
2021/12/17 10:46:06;;;;;;;8.37;7.47;;;12.20;93.60;;;;;;5074908;27;20994;-47
2021/12/17 10:48:48;;;;;;;7.83;6.70;;;12.30;93.70;;;;;;5059985;28;20480;-47
2021/12/17 10:51:21;;;;;;;9.87;7.53;;;12.30;93.40;;;;;;5079599;28;21171;-46
2021/12/17 10:53:53;;;;;;;7.83;7.03;;;12.40;93.60;;;;;;5075817;28;20558;-47
2021/12/17 10:56:22;;;;;;;12.93;8.03;;;12.40;93.10;;;;;;5074421;28;20477;-46
2021/12/17 10:59:00;;;;;;;10.10;7.77;;;12.40;93.50;;;;;;5081221;28;20477;-47
2021/12/17 11:01:46;;;;;;;6.97;6.27;;;12.40;93.20;;;;;;5049843;28;20966;-47
2021/12/17 11:04:19;;;;;;;9.13;7.70;;;12.50;93.10;;;;;;5080442;28;20484;-47
2021/12/17 11:06:53;;;;;;;9.77;7.90;;;12.50;93.00;;;;;;5058509;28;20488;-47
2021/12/17 11:09:41;;;;;;;8.70;6.83;;;12.60;93.60;;;;;;5071713;28;20558;-46
2021/12/17 11:12:31;;;;;;;8.70;7.77;;;12.60;93.30;;;;;;5073740;28;20496;-47
2021/12/17 11:15:18;;;;;;;7.97;6.57;;;12.60;93.00;;;;;;5069578;28;20480;-47
2021/12/17 11:17:46;;;;;;;11.10;7.00;;;12.60;92.70;;;;;;5080149;28;20502;-47
2021/12/17 11:20:16;;;;;;;9.00;6.80;;;12.40;92.60;;;;;;5074974;28;20484;-47
2021/12/17 11:22:45;;;;;;;8.23;6.63;;;12.40;93.00;;;;;;5054925;28;20510;-47
2021/12/17 11:25:12;;;;;;;10.97;6.97;;;12.40;93.20;;;;;;5050154;28;20486;-48
2021/12/17 11:27:39;;;;;;;8.43;6.93;;;12.40;92.80;;;;;;5063471;28;20837;-47
2021/12/17 11:30:10;;;;;;;9.23;6.93;;;12.40;93.10;;;;;;5074144;28;20554;-47
2021/12/17 11:32:38;;;;;;;9.10;7.37;;;12.40;92.90;;;;;;5081985;28;20484;-47
2021/12/17 11:35:06;;;;;;;10.13;6.93;;;12.40;92.70;;;;;;5073857;28;20488;-47
2021/12/17 11:37:34;;;;;;;7.50;6.67;;;12.40;92.60;;;;;;5081770;28;20486;-47
2021/12/17 11:40:05;;;;;;;9.27;6.70;;;12.40;92.90;;;;;;5079441;28;20500;-47
2021/12/17 11:42:59;;;;;;;10.53;7.90;;;12.30;93.00;;;;;;5078042;28;20479;-47
2021/12/17 11:45:29;;;;;;;6.37;5.70;;;12.30;93.10;;;;;;5061248;28;20500;-47
2021/12/17 11:48:13;;;;;;;8.80;7.40;;;12.20;92.70;;;;;;5072876;28;20484;-48
2021/12/17 11:50:39;;;;;;;8.40;7.10;;;12.30;93.50;;;;;;5078945;28;20592;-47
2021/12/17 11:53:18;;;;;;;10.70;8.33;;;12.20;93.10;;;;;;5076024;28;20543;-47
2021/12/17 11:55:47;;;;;;;13.97;8.27;;;12.30;93.20;;;;;;5070571;28;21124;-46
2021/12/17 11:58:16;;;;;;;8.77;6.70;;;12.30;93.00;;;;;;5062416;28;20872;-47
2021/12/17 12:00:50;;;;;;;6.93;6.07;;;12.30;92.90;;;;;;5063324;28;20472;-47
2021/12/17 12:03:21;;;;;;;7.60;6.80;;;12.40;93.10;;;;;;5081093;28;20489;-47
2021/12/17 12:05:50;;;;;;;7.47;6.67;;;12.50;93.20;;;;;;5077980;28;20495;-48
2021/12/17 12:08:30;;;;;;;9.53;6.50;;;12.60;92.90;;;;;;5068952;28;20535;-47
2021/12/17 12:11:08;;;;;;;8.03;6.50;;;12.80;92.60;;;;;;5071268;28;20471;-47
2021/12/17 12:13:37;;;;;;;5.63;5.07;;;12.80;92.70;;;;;;5078347;28;20476;-47
2021/12/17 12:16:05;;;;;;;7.03;5.40;;;12.80;92.30;;;;;;5078712;28;20515;-47
2021/12/17 12:18:49;;;;;;;5.47;4.93;;;12.80;92.20;;;;;;5076745;28;21086;-48
2021/12/17 12:21:17;;;;;;;6.73;6.03;;;12.70;92.50;;;;;;5076731;28;20912;-47
2021/12/17 12:23:53;;;;;;;5.50;4.93;;;12.70;93.10;;;;;;5078839;28;20819;-47
2021/12/17 12:26:28;;;;;;;5.23;4.57;;;12.60;92.20;;;;;;5071787;28;20476;-47
2021/12/17 12:28:59;;;;;;;5.13;3.93;;;12.50;92.20;;;;;;5081188;28;20481;-47
2021/12/17 12:31:47;;;;;;;5.50;4.60;;;12.40;92.00;;;;;;5050525;28;20485;-47
2021/12/17 12:34:20;;;;;;;5.97;4.77;;;12.30;92.20;;;;;;5068259;28;20465;-47
2021/12/17 12:36:49;;;;;;;8.43;5.40;;;12.30;92.40;;;;;;5081411;28;20470;-47
2021/12/17 12:39:18;;;;;;;6.00;5.47;;;12.20;92.40;;;;;;5074884;28;20852;-47
2021/12/17 12:41:46;;;;;;;4.97;4.37;;;12.20;92.50;;;;;;5079986;28;20489;-47
2021/12/17 12:44:13;;;;;;;6.23;4.70;;;12.10;92.40;;;;;;5069619;28;20496;-47
2021/12/17 12:46:54;;;;;;;5.53;4.47;;;12.10;92.40;;;;;;5071744;28;20486;-48
2021/12/17 12:49:45;;;;;;;7.37;5.10;;;12.20;92.60;;;;;;5063483;28;20595;-47
2021/12/17 12:52:17;;;;;;;5.70;5.10;;;12.20;92.80;;;;;;5066879;28;20488;-48
2021/12/17 12:54:49;;;;;;;6.83;5.73;;;12.20;92.40;;;;;;5071222;28;20481;-47
2021/12/17 12:57:25;;;;;;;8.53;5.33;;;12.20;92.20;;;;;;5050410;28;20473;-48
2021/12/17 12:59:52;;;;;;;6.40;5.80;;;12.30;92.80;;;;;;5086702;28;20490;-48
2021/12/17 13:02:19;;;;;;;8.60;5.67;;;12.30;92.60;;;;;;5066977;28;20484;-47
2021/12/17 13:04:48;;;;;;;7.40;5.33;;;12.30;92.70;;;;;;5080354;28;20491;-47
2021/12/17 13:07:15;;;;;;;7.77;6.00;;;12.40;92.80;;;;;;5076511;28;20466;-48
2021/12/17 13:09:43;;;;;;;9.37;7.03;;;12.40;93.10;;;;;;5067286;28;20663;-47
2021/12/17 13:12:11;;;;;;;8.10;5.87;;;12.50;93.30;;;;;;5051352;28;20586;-47
2021/12/17 13:14:43;;;;;;;7.43;6.20;;;12.70;92.70;;;;;;5074533;28;20494;-47
2021/12/17 13:17:39;;;;;;;13.00;8.13;;;12.80;92.80;;;;;;5076833;28;21020;-47
2021/12/17 13:20:40;;;;;;;9.70;7.23;;;12.90;92.40;;;;;;5067649;28;20490;-51
2021/12/17 13:23:13;;;;;;;7.00;5.40;;;13.00;92.30;;;;;;5077837;28;20504;-47
2021/12/17 13:25:39;;;;;;;5.80;5.20;;;13.00;92.40;;;;;;5071995;28;20511;-47
2021/12/17 13:28:06;;;;;;;10.70;6.67;;;12.90;92.40;;;;;;5081170;28;20497;-48
2021/12/17 13:30:33;;;;;;;7.97;5.97;;;12.80;92.40;;;;;;5075565;28;20539;-47
2021/12/17 13:33:00;;;;;;;7.70;6.50;;;12.80;92.40;;;;;;5072923;28;20499;-48
2021/12/17 13:35:33;;;;;;;8.67;5.47;;;12.80;92.30;;;;;;5075801;28;20491;-48
2021/12/17 13:38:01;;;;;;;8.23;6.77;;;12.70;92.30;;;;;;5075270;28;20483;-47
2021/12/17 13:40:28;;;;;;;6.80;5.70;;;12.80;92.50;;;;;;5071418;28;20485;-48
2021/12/17 13:42:55;;;;;;;7.43;6.50;;;12.90;92.40;;;;;;5077867;28;20482;-49
2021/12/17 13:45:23;;;;;;;7.80;6.63;;;13.00;92.20;;;;;;5076774;28;20503;-47
2021/12/17 13:47:53;;;;;;;8.67;6.97;;;13.00;92.20;;;;;;5066428;28;20870;-48
2021/12/17 13:50:23;;;;;;;6.73;5.70;;;13.00;92.00;;;;;;5078812;28;20693;-48
2021/12/17 13:52:53;;;;;;;6.87;5.90;;;13.10;92.20;;;;;;5069054;28;20476;-47
2021/12/17 13:55:24;;;;;;;7.90;6.17;;;13.00;91.80;;;;;;5071228;28;20575;-47
2021/12/17 13:57:52;;;;;;;8.10;6.13;;;12.90;91.80;;;;;;5071119;28;20486;-47
2021/12/17 14:00:21;;;;;;;5.47;4.93;;;12.80;91.50;;;;;;5077711;28;20514;-47
2021/12/17 14:02:50;;;;;;;6.40;5.53;;;12.70;91.70;;;;;;5077552;28;20540;-48
2021/12/17 14:05:21;;;;;;;7.20;6.40;;;12.60;91.60;;;;;;5065335;28;20557;-47
2021/12/17 14:07:51;;;;;;;8.90;7.17;;;12.50;92.10;;;;;;5082128;28;20492;-48
2021/12/17 14:10:20;;;;;;;9.93;7.90;;;12.50;92.20;;;;;;5092860;28;20873;-47
2021/12/17 14:12:48;;;;;;;8.43;7.57;;;12.50;92.40;;;;;;5075346;28;20482;-47
2021/12/17 14:15:19;;;;;;;8.37;7.50;;;12.50;92.40;;;;;;5079589;28;20492;-47
2021/12/17 14:17:49;;;;;;;14.50;10.60;;;12.50;92.70;;;;;;5077721;28;20509;-47
2021/12/17 14:20:17;;;;;;;12.07;10.00;;;12.50;92.40;;;;;;5078820;28;20502;-48
2021/12/17 14:22:45;;;;;;;13.57;9.83;;;12.50;92.30;;;;;;5064997;28;20457;-49
2021/12/17 14:25:39;;;;;;;14.47;11.10;;;12.50;92.40;;;;;;5068932;28;20486;-48
2021/12/17 14:28:21;;;;;;;13.27;10.27;;;12.50;92.30;;;;;;5064586;28;21050;-48
2021/12/17 14:30:56;;;;;;;14.13;10.77;;;12.50;92.10;;;;;;5057434;28;20835;-48
2021/12/17 14:33:29;;;;;;;10.20;8.80;;;12.40;92.10;;;;;;5079719;28;20909;-47
2021/12/17 14:35:59;;;;;;;10.00;9.00;;;12.30;92.20;;;;;;5078654;28;20493;-47
2021/12/17 14:38:37;;;;;;;12.80;9.90;;;12.30;92.30;;;;;;5079333;28;20809;-47
2021/12/17 14:41:08;;;;;;;12.97;10.47;;;12.20;92.20;;;;;;5079622;28;20533;-47
2021/12/17 14:43:43;;;;;;;11.37;9.63;;;12.00;92.10;;;;;;5081420;28;20481;-48
2021/12/17 14:46:22;;;;;;;16.40;10.43;;;12.00;92.20;;;;;;5038768;28;20577;-48
2021/12/17 14:49:12;;;;;;;18.27;11.87;;;12.00;92.20;;;;;;5053466;28;20484;-48
2021/12/17 14:57:38;;;;;;;12.37;10.60;;;11.90;92.30;;;;;;5070537;28;20487;-48
2021/12/17 15:00:26;;;;;;;19.87;12.00;;;11.80;92.10;;;;;;5070788;28;20479;-48
2021/12/17 15:02:58;;;;;;;16.07;11.43;;;11.60;92.30;;;;;;5071599;28;20481;-48
2021/12/17 15:05:28;;;;;;;14.07;11.47;;;11.40;92.40;;;;;;5068334;28;20473;-49
2021/12/17 15:07:56;;;;;;;16.20;12.67;;;11.30;92.50;;;;;;5072391;28;20481;-48
2021/12/17 15:10:23;;;;;;;18.07;11.40;;;11.10;92.70;;;;;;5072388;28;20452;-47
2021/12/17 15:12:56;;;;;;;15.87;10.40;;;11.00;92.70;;;;;;5078371;28;20489;-48
2021/12/17 15:15:25;;;;;;;18.13;11.67;;;10.90;92.80;;;;;;5073035;28;20469;-47
2021/12/17 15:17:55;;;;;;;15.00;11.90;;;10.70;92.80;;;;;;5060573;28;20470;-47